Главная страница
METAR-TAF:

METAR-TAF

Аэропорты :

Лорето, Мексика

широта: 26-01N, долгота: 111-21W, высота над уровнем моря: 15 м

Текущие метеонаблюдения

Эта сводка был подготовлена 2 часа и 28 минут назад, в 01:40 UTC
Штиль
Температура 30°C
Влажность 49%
Давление 1009 hPa
Видимость: 16.1 км
Отдельные облака на высоте 24000 фута

METAR: MMLT 200140Z 00000KT 10SM SCT240 30/18 A2979 RMK 8/001

Время: 22:08 (04:08 UTC)

Прогноз

Эта сводка был подготовлена 11 часа и 0 минут назад, в 17:08 UTC
Прогноз действительный с 19-го 18 UTC до 20-го 18 UTC
Ветер 12 Узел от северо-северо-восточный
Видимость: 10 км
Отдельные облака на высоте 20000 фута
изменения
С 20-го 02 UTC до 20-го 03 UTC
Ветер 5 Узел от северо-западный
С 20-го 1700 UTC
Ветер 8 Узел от северо-северо-восточный
Видимость: 10 км
Отдельные облака на высоте 20000 фута

TAF: MMLT 191708Z 1918/2018 02012KT P6SM SCT200 BECMG 2002/2003 32005KT FM201700 02008KT P6SM SCT200

Метеонаблюдения и прогнозы для более 4000 аэропортов (сводки METAR и TAF).

Имеющиеся станции представлены на карте желтыми и красными точками.

Чтобы увидеть название станции, наведите на нее мышь.

Затем щелкните, чтобы увидеть метеонаблюдения и метеопрогнозы.

Управление картой: чтобы увеличить масштаб, щелкните зеленые кнопки с черным крестиком; чтобы уменьшить масштаб, щелкните зеленую кнопку с тире; для просмотра соседних карт щелкайте зеленые стрелки.


METAR-TAF: